createdAt,value
2022-12-24T00:01:11.321Z,21.5
2022-12-24T00:06:39.322Z,21.5
2022-12-24T00:12:17.299Z,21.4
2022-12-24T00:17:40.616Z,21.4
2022-12-24T00:23:20.094Z,21.4
2022-12-24T00:28:27.800Z,21.4
2022-12-24T00:34:13.817Z,21.4
2022-12-24T00:39:51.261Z,21.3
2022-12-24T00:45:29.204Z,21.3
2022-12-24T00:51:11.405Z,21.3
2022-12-24T00:56:49.076Z,21.3
2022-12-24T01:02:12.148Z,21.3
2022-12-24T01:07:51.793Z,21.3
2022-12-24T01:13:29.283Z,21.2
2022-12-24T01:19:07.884Z,21.2
2022-12-24T01:24:45.764Z,21.2
2022-12-24T01:30:23.549Z,21.2
2022-12-24T01:51:28.826Z,21.1
2022-12-24T01:57:07.381Z,21.1
2022-12-24T02:02:46.282Z,21.1
2022-12-24T02:08:24.752Z,21.1
2022-12-24T02:19:10.279Z,21.3
2022-12-24T02:24:33.133Z,21.4
2022-12-24T02:30:11.498Z,21.6
2022-12-24T02:35:33.301Z,21.6
2022-12-24T02:41:03.138Z,21.7
2022-12-24T02:47:02.734Z,21.8
2022-12-24T02:52:40.145Z,21.9
2022-12-24T02:58:02.868Z,22
2022-12-24T03:03:27.391Z,21.9
2022-12-24T03:08:48.976Z,22
2022-12-24T03:14:26.960Z,22
2022-12-24T03:19:50.493Z,22
2022-12-24T03:25:28.329Z,22.1
2022-12-24T03:31:06.532Z,22.1
2022-12-24T03:36:29.387Z,22.3
2022-12-24T03:42:06.797Z,22.3
2022-12-24T03:47:45.360Z,22.3
2022-12-24T03:53:23.188Z,22.4
2022-12-24T03:59:00.330Z,22.4
2022-12-24T04:04:23.363Z,22.4
2022-12-24T04:09:46.603Z,22.4
2022-12-24T04:15:25.761Z,22.4
2022-12-24T04:21:04.116Z,22.4
2022-12-24T04:26:42.369Z,22.4
2022-12-24T04:32:04.101Z,22.4
2022-12-24T04:37:27.444Z,22.4
2022-12-24T04:42:54.011Z,22.4
2022-12-24T04:48:17.277Z,22.4
2022-12-24T04:53:39.966Z,22.4
2022-12-24T04:59:02.202Z,22.4
2022-12-24T05:04:56.705Z,22.4
2022-12-24T05:10:49.412Z,22.5
2022-12-24T05:16:35.491Z,22.5
2022-12-24T05:22:13.242Z,22.5
2022-12-24T05:27:51.439Z,22.5
2022-12-24T05:33:14.766Z,22.5
2022-12-24T05:38:38.087Z,22.5
2022-12-24T05:44:20.051Z,22.4
2022-12-24T05:49:44.913Z,22.4
2022-12-24T05:55:24.591Z,22.4
2022-12-24T06:00:47.060Z,22.4
2022-12-24T06:06:15.444Z,22.4
2022-12-24T06:11:53.833Z,22.4
2022-12-24T06:17:37.538Z,22.4
2022-12-24T06:23:15.879Z,22.4
2022-12-24T06:28:39.008Z,22.3
2022-12-24T06:34:25.222Z,22.3
2022-12-24T06:40:03.543Z,22.3
2022-12-24T06:45:42.088Z,22.3
2022-12-24T06:51:20.464Z,22.3
2022-12-24T06:56:58.377Z,22.3
2022-12-24T07:02:27.943Z,22.3
2022-12-24T07:08:06.483Z,22.3
2022-12-24T07:13:45.946Z,22.2
2022-12-24T07:19:32.256Z,22.2
2022-12-24T07:25:11.096Z,22.2
2022-12-24T07:30:49.155Z,22.2
2022-12-24T07:36:45.504Z,22.1
2022-12-24T07:42:31.139Z,22.1
2022-12-24T07:48:09.557Z,22.1
2022-12-24T07:53:48.045Z,22.1
2022-12-24T07:59:26.600Z,22.1
2022-12-24T08:05:11.216Z,22.1
2022-12-24T08:10:49.756Z,22
2022-12-24T08:16:27.411Z,22
2022-12-24T08:22:06.331Z,22
2022-12-24T08:27:44.111Z,21.9
2022-12-24T08:33:29.653Z,21.9
2022-12-24T08:39:07.538Z,22
2022-12-24T08:44:46.420Z,21.9
2022-12-24T08:50:29.502Z,21.9
2022-12-24T08:56:12.719Z,21.9
2022-12-24T09:01:51.850Z,21.9
2022-12-24T09:07:36.445Z,21.9
2022-12-24T09:13:19.401Z,21.9
2022-12-24T09:19:03.488Z,21.9
2022-12-24T09:24:30.829Z,21.8
2022-12-24T09:29:53.796Z,21.9
2022-12-24T09:35:37.502Z,21.8
2022-12-24T09:41:20.321Z,21.8
2022-12-24T09:46:43.626Z,21.8
2022-12-24T09:52:25.283Z,21.8
2022-12-24T09:57:48.152Z,21.8
2022-12-24T10:03:12.604Z,21.8
2022-12-24T10:08:51.239Z,21.8
2022-12-24T10:14:19.096Z,21.8
2022-12-24T10:19:57.532Z,21.8
2022-12-24T10:25:39.890Z,21.8
2022-12-24T10:31:23.763Z,21.8
2022-12-24T10:37:02.277Z,21.8
2022-12-24T10:42:24.766Z,21.8
2022-12-24T10:48:13.476Z,21.7
2022-12-24T10:53:55.641Z,21.7
2022-12-24T10:59:33.682Z,21.7
2022-12-24T11:05:15.433Z,21.7
2022-12-24T11:10:41.655Z,21.7
2022-12-24T11:17:00.738Z,21.7
2022-12-24T11:22:46.163Z,21.7
2022-12-24T11:28:31.677Z,21.7
2022-12-24T11:34:15.469Z,21.7
2022-12-24T11:39:53.271Z,21.7
2022-12-24T11:45:33.343Z,21.8
2022-12-24T11:51:28.358Z,21.7
2022-12-24T11:57:13.623Z,21.7
2022-12-24T12:03:00.577Z,21.6
2022-12-24T12:08:23.230Z,21.5
2022-12-24T12:14:04.546Z,21.4
2022-12-24T12:19:48.338Z,21.5
2022-12-24T12:25:26.706Z,21.5
2022-12-24T12:31:09.145Z,21.6
2022-12-24T12:36:51.177Z,21.6
2022-12-24T12:42:36.302Z,21.6
2022-12-24T12:48:04.519Z,21.5
2022-12-24T12:53:50.962Z,21.4
2022-12-24T12:59:33.115Z,21.4
2022-12-24T13:05:00.371Z,21.4
2022-12-24T13:10:46.367Z,21.4
2022-12-24T13:16:29.182Z,21.4
2022-12-24T13:22:13.115Z,21.4
2022-12-24T13:27:58.557Z,21.4
2022-12-24T13:33:37.502Z,21.4
2022-12-24T13:39:19.986Z,21.4
2022-12-24T13:45:20.320Z,21.4
2022-12-24T13:50:42.292Z,21.3
2022-12-24T13:56:24.743Z,21.3
2022-12-24T14:02:10.332Z,21.4
2022-12-24T14:07:40.310Z,21.3
2022-12-24T14:13:23.951Z,21.3
2022-12-24T14:19:02.792Z,21.3
2022-12-24T14:24:42.435Z,21.3
2022-12-24T14:30:21.127Z,21.3
2022-12-24T14:35:59.739Z,21.3
2022-12-24T14:41:22.821Z,21.3
2022-12-24T14:47:05.464Z,21.3
2022-12-24T14:53:21.568Z,21.3
2022-12-24T14:59:31.605Z,21.3
2022-12-24T15:05:13.682Z,21.3
2022-12-24T15:10:56.628Z,21.2
2022-12-24T15:16:25.416Z,21.2
2022-12-24T15:21:53.838Z,21.2
2022-12-24T15:27:16.584Z,21.2
2022-12-24T15:33:02.472Z,21.2
2022-12-24T16:15:44.915Z,21.1
2022-12-24T16:21:25.826Z,21.1
2022-12-24T16:27:04.313Z,21.1
2022-12-24T16:32:46.763Z,21.1
2022-12-24T16:38:24.340Z,21
2022-12-24T16:43:54.123Z,21
2022-12-24T16:49:35.426Z,21
2022-12-24T16:55:19.210Z,21
2022-12-24T17:00:26.820Z,20.9
